Aviation Digital Data Service (ADDS)

Output produced by METARs form (0649 UTC 23 May 2017)
found at http://aviationweather.gov/adds/metars/
 
KCLE 230530Z 2306/2412 19006KT P6SM SCT250 
     FM231400 10005KT P6SM BKN200 
     FM231900 03008KT P6SM BKN200 
     FM240200 12005KT P6SM BKN150